createdAt,value
2022-12-02T00:00:16.442Z,81.57
2022-12-02T00:02:43.299Z,81.59
2022-12-02T00:05:15.995Z,81.13
2022-12-02T00:07:43.480Z,81.18
2022-12-02T00:10:24.276Z,81.82
2022-12-02T00:12:51.934Z,81.64
2022-12-02T00:15:37.178Z,81.67
2022-12-02T00:18:04.500Z,81.30
2022-12-02T00:20:31.186Z,82.00
2022-12-02T00:22:57.794Z,82.47
2022-12-02T00:25:24.451Z,82.16
2022-12-02T00:27:51.098Z,82.49
2022-12-02T00:30:18.057Z,81.98
2022-12-02T00:32:44.976Z,82.09
2022-12-02T00:35:11.793Z,81.91
2022-12-02T00:37:38.420Z,81.35
2022-12-02T00:40:05.718Z,81.90
2022-12-02T00:42:32.368Z,81.24
2022-12-02T00:45:17.497Z,81.50
2022-12-02T00:47:44.258Z,81.53
2022-12-02T00:50:11.498Z,81.18
2022-12-02T00:52:38.419Z,81.15
2022-12-02T00:55:05.591Z,81.20
2022-12-02T00:57:32.217Z,80.62
2022-12-02T00:59:58.919Z,80.88
2022-12-02T01:02:25.640Z,80.36
2022-12-02T01:04:52.473Z,80.37
2022-12-02T01:07:19.490Z,79.74
2022-12-02T01:09:46.169Z,79.56
2022-12-02T01:12:12.904Z,79.78
2022-12-02T01:14:40.102Z,79.83
2022-12-02T01:17:06.785Z,79.54
2022-12-02T01:19:33.528Z,79.50
2022-12-02T01:22:00.159Z,79.51
2022-12-02T01:24:26.903Z,79.81
2022-12-02T01:26:53.672Z,80.11
2022-12-02T01:29:20.346Z,79.52
2022-12-02T01:31:46.974Z,79.66
2022-12-02T01:34:13.755Z,79.93
2022-12-02T01:36:40.597Z,80.28
2022-12-02T01:39:08.356Z,80.29
2022-12-02T01:41:35.184Z,79.97
2022-12-02T01:44:02.079Z,80.42
2022-12-02T01:46:28.823Z,80.11
2022-12-02T01:48:55.801Z,80.52
2022-12-02T01:51:22.624Z,81.29
2022-12-02T01:53:49.428Z,80.51
2022-12-02T01:56:16.368Z,80.15
2022-12-02T01:58:43.113Z,79.52
2022-12-02T02:01:28.293Z,79.28
2022-12-02T02:03:55.250Z,79.07
2022-12-02T02:06:24.716Z,79.00
2022-12-02T02:08:52.443Z,79.52
2022-12-02T02:11:19.756Z,80.21
2022-12-02T02:13:46.911Z,80.56
2022-12-02T02:16:15.064Z,80.15
2022-12-02T02:18:42.386Z,79.82
2022-12-02T02:21:14.801Z,80.13
2022-12-02T02:23:42.461Z,80.55
2022-12-02T02:26:09.322Z,80.32
2022-12-02T02:28:36.221Z,80.42
2022-12-02T02:31:04.430Z,80.44
2022-12-02T02:33:40.033Z,80.20
2022-12-02T02:36:09.085Z,80.57
2022-12-02T02:38:37.762Z,80.87
2022-12-02T02:41:06.328Z,81.87
2022-12-02T02:43:35.873Z,82.87
2022-12-02T02:46:02.721Z,82.23
2022-12-02T02:48:37.609Z,82.15
2022-12-02T02:51:05.071Z,81.62
2022-12-02T02:53:33.827Z,81.37
2022-12-02T02:56:02.538Z,81.04
2022-12-02T02:58:34.725Z,80.86
2022-12-02T03:01:14.062Z,81.15
2022-12-02T03:03:46.455Z,81.00
2022-12-02T03:06:14.434Z,81.35
2022-12-02T03:08:46.389Z,80.51
2022-12-02T03:11:13.973Z,80.39
2022-12-02T03:13:43.678Z,80.89
2022-12-02T03:16:15.041Z,80.47
2022-12-02T03:18:44.856Z,81.47
2022-12-02T03:21:13.909Z,81.13
2022-12-02T03:23:40.614Z,81.35
2022-12-02T03:26:07.988Z,80.43
2022-12-02T03:28:35.164Z,79.24
2022-12-02T03:31:02.297Z,79.43
2022-12-02T03:33:29.579Z,79.32
2022-12-02T03:35:56.376Z,79.75
2022-12-02T03:38:23.512Z,79.77
2022-12-02T03:40:50.512Z,79.79
2022-12-02T03:43:17.116Z,79.61
2022-12-02T03:45:43.825Z,79.49
2022-12-02T03:48:12.160Z,79.52
2022-12-02T03:50:40.344Z,79.60
2022-12-02T03:53:07.072Z,79.47
2022-12-02T03:55:35.278Z,79.25
2022-12-02T03:58:07.574Z,78.86
2022-12-02T04:00:36.251Z,78.84
2022-12-02T04:03:03.880Z,79.19
2022-12-02T04:05:30.943Z,79.56
2022-12-02T04:07:57.741Z,79.81
2022-12-02T04:10:24.533Z,79.87
2022-12-02T04:12:51.233Z,79.94
2022-12-02T04:15:20.781Z,79.75
2022-12-02T04:17:47.395Z,79.67
2022-12-02T04:20:14.553Z,79.84
2022-12-02T04:22:41.764Z,80.35
2022-12-02T04:25:09.145Z,79.87
2022-12-02T04:27:35.941Z,80.05
2022-12-02T04:30:02.808Z,79.39
2022-12-02T04:32:30.560Z,79.35
2022-12-02T04:34:57.187Z,80.18
2022-12-02T04:37:23.797Z,79.86
2022-12-02T04:39:50.778Z,79.94
2022-12-02T04:42:17.574Z,80.36
2022-12-02T04:44:44.254Z,79.98
2022-12-02T04:47:10.845Z,80.28
2022-12-02T04:49:37.921Z,80.31
2022-12-02T04:52:04.702Z,80.88
2022-12-02T04:54:31.284Z,80.65
2022-12-02T04:56:58.176Z,79.61
2022-12-02T04:59:24.896Z,79.87
2022-12-02T05:01:52.049Z,79.99
2022-12-02T05:04:18.696Z,80.17
2022-12-02T05:06:45.468Z,80.47
2022-12-02T05:09:12.064Z,80.69
2022-12-02T05:11:38.619Z,79.79
2022-12-02T05:14:05.386Z,79.94
2022-12-02T05:16:32.068Z,79.57
2022-12-02T05:18:58.853Z,79.95
2022-12-02T05:21:25.455Z,80.15
2022-12-02T05:23:52.092Z,79.99
2022-12-02T05:26:19.012Z,80.45
2022-12-02T05:28:46.023Z,80.03
2022-12-02T05:31:12.831Z,80.46
2022-12-02T05:33:39.490Z,80.89
2022-12-02T05:36:06.282Z,80.71
2022-12-02T05:38:32.885Z,80.27
2022-12-02T05:40:59.719Z,80.10
2022-12-02T05:43:27.213Z,80.40
2022-12-02T05:45:59.165Z,80.28
2022-12-02T05:48:26.627Z,80.47
2022-12-02T05:50:54.148Z,80.04
2022-12-02T05:53:26.760Z,80.17
2022-12-02T05:55:55.473Z,80.25
2022-12-02T05:58:23.212Z,79.17
2022-12-02T06:00:58.625Z,79.85
2022-12-02T06:03:25.547Z,80.26
2022-12-02T06:05:53.522Z,80.39
2022-12-02T06:08:23.223Z,80.07
2022-12-02T06:11:03.575Z,80.00
2022-12-02T06:13:36.984Z,79.10
2022-12-02T06:16:07.745Z,78.77
2022-12-02T06:18:36.050Z,78.32
2022-12-02T06:21:04.413Z,78.86
2022-12-02T06:23:32.639Z,78.84
2022-12-02T06:25:59.435Z,78.29
2022-12-02T06:28:30.567Z,78.95
2022-12-02T06:31:01.376Z,79.26
2022-12-02T06:33:30.867Z,79.29
2022-12-02T06:36:01.740Z,78.13
2022-12-02T06:38:31.695Z,78.67
2022-12-02T06:41:14.869Z,79.46
2022-12-02T06:43:41.776Z,79.07
2022-12-02T06:46:19.764Z,78.74
2022-12-02T06:48:46.444Z,78.74
2022-12-02T06:51:20.654Z,78.70
2022-12-02T06:53:48.409Z,79.28
2022-12-02T06:56:27.409Z,78.74
2022-12-02T06:58:58.922Z,79.19
2022-12-02T07:01:30.646Z,78.52
2022-12-02T07:04:09.371Z,78.56
2022-12-02T07:06:41.297Z,78.40
2022-12-02T07:09:29.279Z,78.87
2022-12-02T07:11:58.466Z,79.06
2022-12-02T07:14:40.991Z,79.45
2022-12-02T07:17:22.571Z,78.69
2022-12-02T07:19:58.651Z,79.45
2022-12-02T07:22:38.083Z,79.29
2022-12-02T07:25:04.628Z,79.68
2022-12-02T07:27:34.549Z,80.27
2022-12-02T07:30:01.879Z,80.24
2022-12-02T07:32:30.385Z,80.93
2022-12-02T07:34:57.487Z,80.83
2022-12-02T07:37:24.171Z,80.00
2022-12-02T07:39:50.819Z,79.51
2022-12-02T07:42:17.465Z,79.40
2022-12-02T07:44:44.470Z,79.47
2022-12-02T07:47:11.294Z,79.05
2022-12-02T07:49:38.072Z,79.84
2022-12-02T07:52:05.000Z,80.36
2022-12-02T07:54:33.320Z,79.31
2022-12-02T07:57:00.086Z,80.04
2022-12-02T07:59:26.684Z,80.29
2022-12-02T08:01:53.285Z,79.85
2022-12-02T08:04:19.993Z,80.07
2022-12-02T08:06:46.743Z,79.45
2022-12-02T08:09:13.694Z,78.99
2022-12-02T08:11:40.324Z,78.60
2022-12-02T08:14:06.986Z,78.12
2022-12-02T08:16:33.950Z,78.21
2022-12-02T08:19:01.351Z,78.80
2022-12-02T08:21:29.154Z,80.01
2022-12-02T08:23:55.891Z,80.35
2022-12-02T08:26:22.874Z,79.86
2022-12-02T08:28:53.751Z,79.85
2022-12-02T08:31:21.037Z,79.55
2022-12-02T08:33:47.754Z,79.15
2022-12-02T08:36:15.641Z,80.12
2022-12-02T08:38:42.899Z,78.78
2022-12-02T08:41:13.756Z,79.36
2022-12-02T08:43:41.090Z,79.26
2022-12-02T08:46:08.232Z,79.41
2022-12-02T08:48:34.915Z,79.62
2022-12-02T08:51:01.857Z,78.98
2022-12-02T08:53:28.413Z,79.50
2022-12-02T08:55:55.088Z,79.65
2022-12-02T08:58:21.670Z,79.42
2022-12-02T09:00:48.274Z,79.46
2022-12-02T09:03:14.927Z,79.98
2022-12-02T09:05:41.860Z,79.69
2022-12-02T09:08:09.162Z,80.77
2022-12-02T09:10:36.489Z,79.49
2022-12-02T09:13:03.369Z,80.19
2022-12-02T09:15:30.062Z,80.57
2022-12-02T09:17:56.713Z,80.95
2022-12-02T09:20:23.626Z,82.43
2022-12-02T09:22:50.189Z,82.54
2022-12-02T09:25:16.897Z,82.26
2022-12-02T09:27:43.532Z,83.22
2022-12-02T09:30:11.744Z,82.41
2022-12-02T09:32:39.793Z,82.83
2022-12-02T09:35:06.933Z,83.49
2022-12-02T09:37:33.680Z,83.69
2022-12-02T09:40:00.485Z,83.70
2022-12-02T09:42:27.774Z,83.79
2022-12-02T09:44:55.200Z,83.04
2022-12-02T09:47:23.513Z,83.08
2022-12-02T09:49:50.289Z,83.31
2022-12-02T09:52:25.611Z,83.37
2022-12-02T09:54:55.611Z,83.64
2022-12-02T09:57:40.615Z,84.09
2022-12-02T10:00:27.949Z,84.58
2022-12-02T10:02:54.717Z,85.88
2022-12-02T10:05:24.534Z,85.06
2022-12-02T10:07:54.189Z,85.99
2022-12-02T10:10:37.095Z,86.04
2022-12-02T10:13:07.886Z,85.13
2022-12-02T10:15:35.163Z,84.70
2022-12-02T10:18:12.530Z,85.14
2022-12-02T10:20:39.452Z,85.07
2022-12-02T10:23:16.656Z,85.00
2022-12-02T10:25:51.033Z,85.06
2022-12-02T10:28:29.919Z,85.93
2022-12-02T10:31:07.818Z,87.67
2022-12-02T10:33:37.083Z,86.45
2022-12-02T10:36:04.921Z,86.24
2022-12-02T10:38:36.425Z,84.90
2022-12-02T10:41:15.799Z,85.43
2022-12-02T10:44:04.036Z,85.48
2022-12-02T10:46:32.652Z,85.21
2022-12-02T10:49:37.544Z,85.57
2022-12-02T10:52:11.147Z,85.52
2022-12-02T10:54:44.128Z,84.73
2022-12-02T10:57:16.287Z,85.65
2022-12-02T10:59:43.052Z,85.82
2022-12-02T11:02:30.342Z,84.25
2022-12-02T11:05:01.414Z,85.44
2022-12-02T11:07:28.673Z,85.10
2022-12-02T11:09:56.613Z,85.27
2022-12-02T11:12:31.900Z,85.11
2022-12-02T11:14:58.646Z,84.94
2022-12-02T11:17:45.285Z,85.17
2022-12-02T11:20:32.852Z,84.70
2022-12-02T11:22:59.672Z,86.23
2022-12-02T11:25:44.687Z,85.77
2022-12-02T11:28:29.515Z,85.97
2022-12-02T11:31:11.562Z,84.78
2022-12-02T11:33:47.395Z,86.62
2022-12-02T11:36:18.661Z,86.32
2022-12-02T11:38:52.936Z,86.05
2022-12-02T11:41:25.542Z,85.78
2022-12-02T11:44:21.212Z,84.22
2022-12-02T11:46:54.499Z,83.51
2022-12-02T11:49:40.110Z,84.21
2022-12-02T11:52:09.684Z,84.80
2022-12-02T11:54:41.896Z,84.87
2022-12-02T11:57:18.444Z,85.37
2022-12-02T11:59:45.118Z,86.56
2022-12-02T12:02:19.005Z,86.62
2022-12-02T12:04:47.024Z,85.96
2022-12-02T12:07:14.295Z,86.47
2022-12-02T12:09:41.316Z,86.22
2022-12-02T12:12:12.094Z,86.03
2022-12-02T12:15:02.082Z,85.81
2022-12-02T12:17:40.735Z,85.64
2022-12-02T12:20:13.440Z,85.21
2022-12-02T12:22:40.912Z,84.85
2022-12-02T12:25:39.944Z,84.80
2022-12-02T12:28:25.155Z,84.35
2022-12-02T12:30:51.886Z,84.79
2022-12-02T12:33:18.531Z,84.73
2022-12-02T12:35:45.226Z,84.23
2022-12-02T12:38:11.967Z,84.29
2022-12-02T12:40:38.689Z,85.48
2022-12-02T12:43:05.547Z,84.49
2022-12-02T12:45:32.171Z,83.56
2022-12-02T12:47:58.785Z,83.30
2022-12-02T12:50:30.180Z,84.96
2022-12-02T12:52:56.904Z,85.26
2022-12-02T12:55:23.649Z,85.78
2022-12-02T12:57:50.502Z,83.76
2022-12-02T13:00:17.750Z,83.98
2022-12-02T13:02:44.543Z,83.49
2022-12-02T13:05:11.600Z,83.96
2022-12-02T13:07:38.344Z,84.44
2022-12-02T13:10:05.561Z,83.75
2022-12-02T13:12:32.215Z,83.27
2022-12-02T13:14:59.118Z,84.80
2022-12-02T13:17:25.817Z,85.76
2022-12-02T13:19:52.838Z,86.51
2022-12-02T13:22:19.666Z,86.45
2022-12-02T13:24:46.263Z,86.31
2022-12-02T13:27:12.941Z,86.95
2022-12-02T13:29:39.558Z,85.32
2022-12-02T13:32:06.225Z,85.44
2022-12-02T13:34:32.805Z,86.20
2022-12-02T13:36:59.846Z,85.38
2022-12-02T13:39:27.242Z,86.08
2022-12-02T13:41:53.857Z,84.85
2022-12-02T13:44:20.677Z,85.12
2022-12-02T13:46:47.375Z,85.15
2022-12-02T13:49:14.119Z,83.96
2022-12-02T13:51:40.983Z,83.26
2022-12-02T13:54:07.932Z,82.83
2022-12-02T13:56:34.580Z,82.58
2022-12-02T13:59:01.242Z,83.31
2022-12-02T14:01:27.987Z,82.83
2022-12-02T14:03:54.797Z,83.23
2022-12-02T14:06:21.527Z,82.75
2022-12-02T14:08:48.236Z,83.32
2022-12-02T14:11:15.046Z,84.23
2022-12-02T14:13:41.688Z,83.10
2022-12-02T14:16:08.610Z,81.99
2022-12-02T14:18:35.518Z,82.96
2022-12-02T14:21:02.118Z,82.16
2022-12-02T14:23:28.951Z,81.85
2022-12-02T14:25:55.934Z,82.87
2022-12-02T14:28:22.912Z,82.01
2022-12-02T14:30:49.564Z,82.96
2022-12-02T14:33:16.210Z,85.17
2022-12-02T14:35:45.704Z,85.92
2022-12-02T14:38:12.336Z,86.78
2022-12-02T14:40:39.078Z,85.60
2022-12-02T14:43:09.843Z,84.57
2022-12-02T14:45:39.487Z,85.02
2022-12-02T14:48:06.685Z,85.82
2022-12-02T14:50:33.392Z,85.98
2022-12-02T14:53:00.093Z,86.11
2022-12-02T14:55:27.062Z,85.74
2022-12-02T14:57:54.172Z,89.15
2022-12-02T15:00:21.119Z,88.05
2022-12-02T15:02:47.862Z,89.00
2022-12-02T15:05:17.798Z,83.76
2022-12-02T15:07:44.984Z,81.31
2022-12-02T15:10:13.001Z,80.89
2022-12-02T15:12:39.694Z,81.32
2022-12-02T15:15:30.718Z,81.50
2022-12-02T15:17:54.941Z,82.13
2022-12-02T15:20:23.686Z,81.58
2022-12-02T15:22:50.854Z,80.83
2022-12-02T15:25:17.465Z,79.67
2022-12-02T15:27:44.433Z,80.37
2022-12-02T15:30:11.866Z,79.81
2022-12-02T15:32:40.069Z,79.43
2022-12-02T15:35:09.087Z,79.71
2022-12-02T15:37:35.768Z,79.01
2022-12-02T15:40:03.299Z,80.53
2022-12-02T15:42:30.263Z,79.59
2022-12-02T15:44:56.917Z,80.35
2022-12-02T15:47:23.510Z,80.79
2022-12-02T15:49:50.165Z,80.78
2022-12-02T15:52:16.826Z,80.06
2022-12-02T15:54:43.630Z,79.96
2022-12-02T15:57:10.312Z,80.01
2022-12-02T15:59:36.929Z,80.52
2022-12-02T16:02:03.723Z,79.60
2022-12-02T16:04:32.629Z,80.76
2022-12-02T16:06:59.225Z,80.00
2022-12-02T16:09:25.912Z,80.64
2022-12-02T16:11:52.704Z,79.73
2022-12-02T16:14:19.357Z,80.20
2022-12-02T16:16:46.041Z,80.21
2022-12-02T16:19:12.737Z,79.62
2022-12-02T16:21:39.372Z,80.15
2022-12-02T16:24:06.522Z,80.20
2022-12-02T16:26:33.115Z,80.33
2022-12-02T16:28:59.742Z,80.17
2022-12-02T16:31:26.418Z,79.64
2022-12-02T16:33:53.218Z,79.69
2022-12-02T16:36:23.133Z,80.75
2022-12-02T16:38:49.754Z,79.66
2022-12-02T16:41:16.325Z,79.59
2022-12-02T16:43:43.201Z,80.21
2022-12-02T16:46:09.945Z,79.96
2022-12-02T16:48:36.603Z,80.20
2022-12-02T16:51:03.447Z,78.11
2022-12-02T16:53:30.185Z,78.75
2022-12-02T16:55:56.902Z,79.53
2022-12-02T16:58:23.542Z,80.38
2022-12-02T17:00:50.384Z,80.14
2022-12-02T17:03:18.286Z,79.89
2022-12-02T17:05:44.921Z,80.22
2022-12-02T17:08:11.912Z,79.81
2022-12-02T17:10:38.480Z,79.87
2022-12-02T17:13:05.116Z,79.59
2022-12-02T17:15:31.952Z,79.90
2022-12-02T17:17:58.669Z,78.65
2022-12-02T17:20:25.320Z,78.79
2022-12-02T17:22:52.111Z,78.89
2022-12-02T17:25:18.735Z,79.14
2022-12-02T17:27:45.433Z,79.67
2022-12-02T17:30:13.140Z,80.62
2022-12-02T17:32:40.155Z,78.92
2022-12-02T17:35:07.357Z,79.14
2022-12-02T17:37:34.041Z,79.18
2022-12-02T17:40:00.699Z,79.85
2022-12-02T17:42:27.343Z,79.79
2022-12-02T17:44:54.568Z,79.96
2022-12-02T17:47:21.538Z,78.90
2022-12-02T17:49:48.293Z,79.27
2022-12-02T17:52:22.090Z,80.16
2022-12-02T17:54:49.667Z,80.37
2022-12-02T17:57:16.709Z,80.87
2022-12-02T17:59:43.413Z,81.62
2022-12-02T18:02:10.769Z,81.25
2022-12-02T18:04:37.697Z,81.77
2022-12-02T18:07:09.886Z,82.13
2022-12-02T18:09:37.708Z,82.50
2022-12-02T18:12:05.586Z,81.89
2022-12-02T18:14:32.552Z,80.11
2022-12-02T18:16:59.286Z,81.10
2022-12-02T18:19:26.140Z,81.64
2022-12-02T18:21:52.886Z,81.64
2022-12-02T18:24:19.532Z,82.13
2022-12-02T18:26:47.037Z,81.67
2022-12-02T18:29:13.742Z,81.25
2022-12-02T18:31:40.419Z,82.11
2022-12-02T18:34:07.058Z,82.35
2022-12-02T18:36:33.774Z,82.14
2022-12-02T18:39:01.749Z,82.37
2022-12-02T18:41:28.869Z,81.53
2022-12-02T18:43:55.553Z,81.61
2022-12-02T18:46:23.461Z,81.39
2022-12-02T18:48:50.104Z,80.38
2022-12-02T18:51:16.758Z,81.02
2022-12-02T18:53:43.424Z,81.61
2022-12-02T18:56:10.120Z,81.61
2022-12-02T18:58:36.756Z,82.35
2022-12-02T19:01:03.501Z,82.94
2022-12-02T19:03:30.240Z,82.56
2022-12-02T19:05:56.801Z,83.15
2022-12-02T19:08:23.417Z,82.26
2022-12-02T19:10:51.081Z,81.95
2022-12-02T19:13:18.035Z,82.82
2022-12-02T19:15:44.863Z,83.36
2022-12-02T19:18:11.545Z,83.43
2022-12-02T19:20:38.207Z,82.75
2022-12-02T19:23:04.931Z,83.35
2022-12-02T19:25:31.615Z,83.90
2022-12-02T19:27:59.083Z,83.10
2022-12-02T19:30:27.343Z,83.52
2022-12-02T19:32:54.254Z,84.14
2022-12-02T19:35:21.117Z,84.00
2022-12-02T19:37:47.954Z,84.51
2022-12-02T19:40:14.700Z,83.98
2022-12-02T19:42:41.344Z,83.61
2022-12-02T19:45:11.452Z,83.53
2022-12-02T19:47:38.119Z,83.67
2022-12-02T19:50:06.364Z,83.26
2022-12-02T19:52:33.137Z,83.35
2022-12-02T19:54:59.771Z,83.97
2022-12-02T19:57:26.530Z,83.94
2022-12-02T19:59:53.175Z,84.33
2022-12-02T20:02:21.058Z,85.36
2022-12-02T20:04:47.846Z,85.67
2022-12-02T20:07:14.415Z,84.79
2022-12-02T20:09:41.009Z,84.54
2022-12-02T20:12:07.603Z,84.18
2022-12-02T20:14:34.263Z,84.16
2022-12-02T20:17:01.038Z,83.60
2022-12-02T20:19:27.714Z,84.10
2022-12-02T20:21:54.509Z,84.27
2022-12-02T20:24:21.437Z,84.84
2022-12-02T20:26:48.096Z,84.25
2022-12-02T20:29:14.724Z,84.49
2022-12-02T20:31:41.420Z,83.99
2022-12-02T20:34:08.269Z,84.02
2022-12-02T20:36:35.047Z,84.78
2022-12-02T20:39:01.854Z,84.45
2022-12-02T20:41:28.553Z,83.38
2022-12-02T20:43:55.454Z,83.06
2022-12-02T20:46:23.508Z,83.88
2022-12-02T20:48:50.669Z,83.37
2022-12-02T20:51:17.278Z,84.25
2022-12-02T20:53:43.873Z,84.33
2022-12-02T20:56:10.698Z,83.94
2022-12-02T20:58:37.336Z,83.72
2022-12-02T21:01:09.069Z,83.34
2022-12-02T21:03:38.717Z,83.88
2022-12-02T21:06:05.564Z,83.84
2022-12-02T21:08:32.121Z,84.13
2022-12-02T21:10:58.727Z,84.21
2022-12-02T21:13:25.372Z,83.58
2022-12-02T21:15:52.217Z,84.07
2022-12-02T21:18:19.092Z,84.61
2022-12-02T21:20:45.753Z,83.90
2022-12-02T21:23:12.477Z,84.03
2022-12-02T21:25:39.182Z,83.84
2022-12-02T21:28:05.932Z,84.14
2022-12-02T21:30:34.921Z,83.97
2022-12-02T21:33:01.522Z,83.63
2022-12-02T21:35:28.137Z,82.68
2022-12-02T21:37:54.727Z,82.59
2022-12-02T21:40:21.499Z,83.51
2022-12-02T21:42:48.108Z,83.32
2022-12-02T21:45:14.789Z,83.10
2022-12-02T21:47:41.484Z,83.17
2022-12-02T21:50:09.343Z,83.65
2022-12-02T21:52:35.979Z,82.87
2022-12-02T21:55:03.082Z,82.70
2022-12-02T21:57:30.346Z,83.24
2022-12-02T21:59:57.140Z,83.45
2022-12-02T22:02:23.932Z,83.26
2022-12-02T22:04:50.913Z,83.38
2022-12-02T22:07:36.071Z,82.73
2022-12-02T22:10:03.773Z,82.69
2022-12-02T22:12:30.661Z,82.52
2022-12-02T22:14:57.263Z,83.11
2022-12-02T22:17:23.884Z,83.81
2022-12-02T22:19:50.605Z,83.77
2022-12-02T22:22:17.563Z,84.11
2022-12-02T22:24:44.558Z,83.95
2022-12-02T22:27:11.227Z,83.93
2022-12-02T22:29:37.867Z,85.08
2022-12-02T22:32:05.447Z,84.83
2022-12-02T22:34:32.255Z,84.99
2022-12-02T22:36:59.005Z,84.37
2022-12-02T22:39:26.550Z,84.18
2022-12-02T22:41:53.425Z,84.84
2022-12-02T22:44:20.052Z,85.36
2022-12-02T22:46:47.903Z,84.97
2022-12-02T22:49:14.609Z,84.62
2022-12-02T22:51:41.322Z,84.56
2022-12-02T22:54:07.981Z,84.34
2022-12-02T22:56:34.616Z,84.09
2022-12-02T22:59:01.289Z,84.15
2022-12-02T23:01:27.940Z,83.77
2022-12-02T23:03:54.580Z,83.64
2022-12-02T23:06:21.226Z,83.39
2022-12-02T23:08:48.121Z,84.17
2022-12-02T23:11:14.709Z,84.30
2022-12-02T23:13:44.230Z,83.40
2022-12-02T23:16:10.911Z,83.50
2022-12-02T23:18:37.531Z,84.48
2022-12-02T23:21:04.536Z,84.39
2022-12-02T23:23:31.115Z,84.47
2022-12-02T23:25:57.755Z,84.98
2022-12-02T23:28:24.534Z,85.36
2022-12-02T23:30:51.488Z,85.50
2022-12-02T23:33:18.287Z,85.23
2022-12-02T23:35:44.956Z,84.75
2022-12-02T23:38:11.584Z,83.90
2022-12-02T23:40:38.154Z,85.43
2022-12-02T23:43:04.792Z,85.87
2022-12-02T23:45:31.859Z,85.78
2022-12-02T23:47:58.478Z,85.31
2022-12-02T23:50:25.118Z,85.54
2022-12-02T23:52:51.794Z,85.41
2022-12-02T23:55:18.524Z,85.83
2022-12-02T23:57:45.350Z,85.63
